Focus — WDH3105 — position and weather

sailwx.info

Track history (hours):
 
Tides and Currents Weather Stations Pressure Air Temp Water Temp Dewpoint Dewpoint Depression Visibility Wind Speed Wind Dir Waves Ship Positions

Focus

Owner: Nicol, Thomas S, Bainbridge Island, WA. More information available from US FCC via Universal Licensing System and Coast Guard Vessel Documentation Center.

Last reported at 2018-May-24 23:44 UTC. Time now 2018-Jul-18 10:34 UTC.
Position N 54°32' W 130°42'.
Warning: this ship's position is 54 days out of date.

Date/timePositionNaut miles runAvg speedWind from/ knotsBaromVisibWave heightAir tempDewpointWater temp
2018-May-24 23:44N 54°32' W 130°42'4 6.9
2018-May-24 23:09N 54°29' W 130°40'2 6.8
2018-May-24 22:54N 54°27' W 130°38'2 4.6
2018-May-24 22:28N 54°25' W 130°37'3 6.9
2018-May-24 22:00N 54°22' W 130°36'3 6.8
2018-May-24 21:30N 54°19' W 130°34'3 6.6
2018-May-24 21:00N 54°16' W 130°31'3 6.8
2018-May-24 20:30N 54°13' W 130°28'4 7.3
2018-May-24 20:00N 54°10' W 130°25'4 7.5
2018-May-24 19:30N 54°08' W 130°19'4 7.2
2018-May-24 19:00N 54°05' W 130°16'4 7.3
2018-May-24 18:29N 54°02' W 130°14'3 7.1
2018-May-24 18:00N 53°58' W 130°12'3 6.9
2018-May-24 17:30N 53°55' W 130°11'3 6.8
2018-May-24 17:00N 53°53' W 130°06'3 5.9
2018-May-24 16:28N 53°51' W 130°02'  
2018-May-19 18:07N 52°09' W 128°08'1 6.2
2018-May-19 17:58N 52°08' W 128°08'3 6.4
2018-May-19 17:28N 52°05' W 128°07'9 5.1
2018-May-19 15:44N 52°00' W 127°55'1 5.0
2018-May-19 15:30N 51°59' W 127°54'1 2.3
2018-May-19 14:56N 51°58' W 127°53'0 0.0
2018-May-19 14:29N 51°58' W 127°53'0 0.0
2018-May-19 13:59N 51°58' W 127°53'0 0.0
2018-May-19 13:29N 51°58' W 127°53'0 0.0
2018-May-19 12:59N 51°58' W 127°53'0 0.0
2018-May-19 12:29N 51°58' W 127°53'0 0.0
2018-May-19 11:59N 51°58' W 127°53'0 0.0
2018-May-19 11:26N 51°58' W 127°53'0 0.0
2018-May-19 10:59N 51°58' W 127°53'0 0.0
2018-May-19 10:29N 51°58' W 127°53'0 0.0
2018-May-19 09:59N 51°58' W 127°53'0 0.0
2018-May-19 09:29N 51°58' W 127°53'0 0.0
2018-May-19 08:59N 51°58' W 127°53'0 0.0
2018-May-19 08:29N 51°58' W 127°53'0 0.0
2018-May-19 07:59N 51°58' W 127°53'0 0.0
2018-May-19 07:29N 51°58' W 127°53'0 0.0
2018-May-19 06:59N 51°58' W 127°53'0 0.0
2018-May-19 06:29N 51°58' W 127°53'0 0.0
2018-May-19 05:59N 51°58' W 127°53'0 0.0
2018-May-19 05:29N 51°58' W 127°53'0 0.0
2018-May-19 04:59N 51°58' W 127°53'0 0.0
2018-May-19 04:02N 51°58' W 127°53'0 0.0
2018-May-19 03:56N 51°58' W 127°53'0 0.0
2018-May-19 03:26N 51°58' W 127°53'0 0.0
2018-May-19 02:59N 51°58' W 127°53'0 0.0
2018-May-19 02:17N 51°58' W 127°53'0 0.0
2018-May-19 01:53N 51°58' W 127°53'0 0.0
2018-May-19 01:29N 51°58' W 127°53'0 0.0
2018-May-19 00:59N 51°58' W 127°53'0 0.0
2018-May-19 00:17N 51°58' W 127°53'0 0.0
2018-May-18 23:59N 51°58' W 127°53'0 0.0
2018-May-18 23:29N 51°58' W 127°53'0 0.0
2018-May-18 22:56N 51°58' W 127°53'0 0.0
2018-May-18 22:29N 51°58' W 127°53'0 0.0
2018-May-18 21:56N 51°58' W 127°53'0 0.0
2018-May-18 21:29N 51°58' W 127°53'0 0.0
2018-May-18 20:59N 51°58' W 127°53'2 3.9
2018-May-18 20:30N 51°56' W 127°54'3 6.1
2018-May-18 20:00N 51°53' W 127°54'2 3.9
2018-May-18 19:30N 51°51' W 127°53'3 6.3
2018-May-18 19:00N 51°49' W 127°54'3 6.5
2018-May-18 18:30N 51°45' W 127°54'3 6.3
2018-May-18 18:00N 51°42' W 127°54'3 5.6
2018-May-18 17:30N 51°40' W 127°53'3 6.7
2018-May-18 17:00N 51°37' W 127°49'3 5.3
2018-May-18 16:30N 51°34' W 127°49'3 6.5
2018-May-18 16:00N 51°31' W 127°48'3 5.6
2018-May-18 15:30N 51°29' W 127°46'1 0.1
2018-May-18 03:19N 51°29' W 127°46'0 0.0
2018-May-18 02:49N 51°29' W 127°46'0 0.0
2018-May-17 22:31N 51°29' W 127°46'0 0.0
2018-May-17 22:07N 51°29' W 127°46'0 0.0
2018-May-17 21:59N 51°29' W 127°46'2 4.0
2018-May-17 21:29N 51°27' W 127°47'20 6.5
2018-May-17 18:21N 51°07' W 127°51'2 6.0
2018-May-17 17:57N 51°05' W 127°50'3 6.0
2018-May-17 17:30N 51°03' W 127°48'3 6.4
2018-May-17 17:00N 50°60' W 127°45'3 6.4
2018-May-17 16:30N 50°57' W 127°42'4 7.5
2018-May-17 15:58N 50°54' W 127°38'4 8.0
2018-May-17 15:29N 50°52' W 127°33'4 8.1
2018-May-17 15:00N 50°50' W 127°28'4 7.4
2018-May-17 14:30N 50°47' W 127°24'  
Track history (hours):
 
Tides and Currents Weather Stations Pressure Air Temp Water Temp Dewpoint Dewpoint Depression Visibility Wind Speed Wind Dir Waves Ship Positions

Focus

Owner: Nicol, Thomas S, Bainbridge Island, WA. More information available from US FCC via Universal Licensing System and Coast Guard Vessel Documentation Center.

Last reported at 2018-May-24 23:44 UTC. Time now 2018-Jul-18 10:34 UTC.
Position N 54°32' W 130°42'.
Warning: this ship's position is 54 days out of date.

Date/timePositionNaut miles runAvg speedWind from/ knotsBaromVisibWave heightAir tempDewpointWater temp
2018-May-24 23:44N 54°32' W 130°42'4 6.9
2018-May-24 23:09N 54°29' W 130°40'2 6.8
2018-May-24 22:54N 54°27' W 130°38'2 4.6
2018-May-24 22:28N 54°25' W 130°37'3 6.9
2018-May-24 22:00N 54°22' W 130°36'3 6.8
2018-May-24 21:30N 54°19' W 130°34'3 6.6
2018-May-24 21:00N 54°16' W 130°31'3 6.8
2018-May-24 20:30N 54°13' W 130°28'4 7.3
2018-May-24 20:00N 54°10' W 130°25'4 7.5
2018-May-24 19:30N 54°08' W 130°19'4 7.2
2018-May-24 19:00N 54°05' W 130°16'4 7.3
2018-May-24 18:29N 54°02' W 130°14'3 7.1
2018-May-24 18:00N 53°58' W 130°12'3 6.9
2018-May-24 17:30N 53°55' W 130°11'3 6.8
2018-May-24 17:00N 53°53' W 130°06'3 5.9
2018-May-24 16:28N 53°51' W 130°02'  
2018-May-19 18:07N 52°09' W 128°08'1 6.2
2018-May-19 17:58N 52°08' W 128°08'3 6.4
2018-May-19 17:28N 52°05' W 128°07'9 5.1
2018-May-19 15:44N 52°00' W 127°55'1 5.0
2018-May-19 15:30N 51°59' W 127°54'1 2.3
2018-May-19 14:56N 51°58' W 127°53'0 0.0
2018-May-19 14:29N 51°58' W 127°53'0 0.0
2018-May-19 13:59N 51°58' W 127°53'0 0.0
2018-May-19 13:29N 51°58' W 127°53'0 0.0
2018-May-19 12:59N 51°58' W 127°53'0 0.0
2018-May-19 12:29N 51°58' W 127°53'0 0.0
2018-May-19 11:59N 51°58' W 127°53'0 0.0
2018-May-19 11:26N 51°58' W 127°53'0 0.0
2018-May-19 10:59N 51°58' W 127°53'0 0.0
2018-May-19 10:29N 51°58' W 127°53'0 0.0
2018-May-19 09:59N 51°58' W 127°53'0 0.0
2018-May-19 09:29N 51°58' W 127°53'0 0.0
2018-May-19 08:59N 51°58' W 127°53'0 0.0
2018-May-19 08:29N 51°58' W 127°53'0 0.0
2018-May-19 07:59N 51°58' W 127°53'0 0.0
2018-May-19 07:29N 51°58' W 127°53'0 0.0
2018-May-19 06:59N 51°58' W 127°53'0 0.0
2018-May-19 06:29N 51°58' W 127°53'0 0.0
2018-May-19 05:59N 51°58' W 127°53'0 0.0
2018-May-19 05:29N 51°58' W 127°53'0 0.0
2018-May-19 04:59N 51°58' W 127°53'0 0.0
2018-May-19 04:02N 51°58' W 127°53'0 0.0
2018-May-19 03:56N 51°58' W 127°53'0 0.0
2018-May-19 03:26N 51°58' W 127°53'0 0.0
2018-May-19 02:59N 51°58' W 127°53'0 0.0
2018-May-19 02:17N 51°58' W 127°53'0 0.0
2018-May-19 01:53N 51°58' W 127°53'0 0.0
2018-May-19 01:29N 51°58' W 127°53'0 0.0
2018-May-19 00:59N 51°58' W 127°53'0 0.0
2018-May-19 00:17N 51°58' W 127°53'0 0.0
2018-May-18 23:59N 51°58' W 127°53'0 0.0
2018-May-18 23:29N 51°58' W 127°53'0 0.0
2018-May-18 22:56N 51°58' W 127°53'0 0.0
2018-May-18 22:29N 51°58' W 127°53'0 0.0
2018-May-18 21:56N 51°58' W 127°53'0 0.0
2018-May-18 21:29N 51°58' W 127°53'0 0.0
2018-May-18 20:59N 51°58' W 127°53'2 3.9
2018-May-18 20:30N 51°56' W 127°54'3 6.1
2018-May-18 20:00N 51°53' W 127°54'2 3.9
2018-May-18 19:30N 51°51' W 127°53'3 6.3
2018-May-18 19:00N 51°49' W 127°54'3 6.5
2018-May-18 18:30N 51°45' W 127°54'3 6.3
2018-May-18 18:00N 51°42' W 127°54'3 5.6
2018-May-18 17:30N 51°40' W 127°53'3 6.7
2018-May-18 17:00N 51°37' W 127°49'3 5.3
2018-May-18 16:30N 51°34' W 127°49'3 6.5
2018-May-18 16:00N 51°31' W 127°48'3 5.6
2018-May-18 15:30N 51°29' W 127°46'1 0.1
2018-May-18 03:19N 51°29' W 127°46'0 0.0
2018-May-18 02:49N 51°29' W 127°46'0 0.0
2018-May-17 22:31N 51°29' W 127°46'0 0.0
2018-May-17 22:07N 51°29' W 127°46'0 0.0
2018-May-17 21:59N 51°29' W 127°46'2 4.0
2018-May-17 21:29N 51°27' W 127°47'20 6.5
2018-May-17 18:21N 51°07' W 127°51'2 6.0
2018-May-17 17:57N 51°05' W 127°50'3 6.0
2018-May-17 17:30N 51°03' W 127°48'3 6.4
2018-May-17 17:00N 50°60' W 127°45'3 6.4
2018-May-17 16:30N 50°57' W 127°42'4 7.5
2018-May-17 15:58N 50°54' W 127°38'4 8.0
2018-May-17 15:29N 50°52' W 127°33'4 8.1
2018-May-17 15:00N 50°50' W 127°28'4 7.4
2018-May-17 14:30N 50°47' W 127°24'  

Dump ship's entire track history